Time;durP1;ratioP1;P1;durP2;ratioP2;P2;SDS_P1;SDS_P2;PMS_P1;PMS_P2;Temp;Humidity;BMP_temperature;BMP_pressure;BME280_temperature;BME280_humidity;BME280_pressure;Samples;Min_cycle;Max_cycle;Signal;HPM_P1;HPM_P2
2022/05/20 00:00:54;;;;;;;69.18;41.50;;;;;;;29.06;71.74;100884.31;5020954;28;70040;-39
2022/05/20 00:03:25;;;;;;;60.73;40.77;;;;;;;29.16;71.96;100895.53;5016121;28;66514;-38
2022/05/20 00:05:57;;;;;;;63.58;44.10;;;;;;;29.20;72.39;100902.22;5017331;28;69555;-38
2022/05/20 00:08:28;;;;;;;64.90;45.03;;;;;;;29.24;72.54;100898.03;5018627;28;65657;-38
2022/05/20 00:11:00;;;;;;;61.25;44.72;;;;;;;28.91;73.21;100846.69;5018164;28;70179;-38
2022/05/20 00:13:31;;;;;;;69.80;45.67;;;;;;;29.33;72.94;100901.34;5018045;28;66301;-38
2022/05/20 00:16:03;;;;;;;77.70;52.67;;;;;;;29.28;75.67;100890.34;5019489;28;71330;-39
2022/05/20 00:18:34;;;;;;;80.87;58.30;;;;;;;29.42;76.84;100910.94;5021597;28;66189;-40
2022/05/20 00:21:05;;;;;;;78.20;56.45;;;;;;;29.48;75.05;100909.25;5016646;28;70089;-38
2022/05/20 00:23:37;;;;;;;76.00;55.77;;;;;;;29.47;76.83;100902.16;5015695;28;65003;-37
2022/05/20 00:26:08;;;;;;;76.57;54.58;;;;;;;29.53;76.13;100904.03;5020938;28;70070;-37
2022/05/20 00:28:40;;;;;;;73.75;51.25;;;;;;;29.55;76.68;100910.06;5014192;28;66241;-38
2022/05/20 00:31:11;;;;;;;74.00;54.00;;;;;;;29.59;75.95;100924.81;5021729;28;69689;-38
2022/05/20 00:33:43;;;;;;;75.80;54.20;;;;;;;29.55;76.19;100904.66;5021085;28;66111;-36
2022/05/20 00:36:15;;;;;;;73.63;52.07;;;;;;;29.51;77.15;100903.41;5021963;28;69857;-39
2022/05/20 00:38:46;;;;;;;67.82;48.53;;;;;;;29.67;72.43;100904.84;5012380;28;65606;-37
2022/05/20 00:41:18;;;;;;;57.35;44.97;;;;;;;29.89;71.11;100922.47;5020002;28;70187;-37
2022/05/20 00:43:50;;;;;;;58.72;41.80;;;;;;;29.98;70.54;100923.09;5021083;28;66472;-37
2022/05/20 00:46:23;;;;;;;;;;;;;;;29.72;73.06;100921.28;5020669;28;70152;-38
2022/05/20 00:49:03;;;;;;;54.22;40.60;;;;;;;29.62;70.80;100846.00;5020383;28;66800;-36
2022/05/20 00:51:39;;;;;;;53.95;39.90;;;;;;;30.18;69.52;100926.53;5020452;28;69851;-38
2022/05/20 00:54:17;;;;;;;51.65;40.25;;;;;;;30.20;69.51;100927.16;5027576;28;66060;-39
2022/05/20 00:57:03;;;;;;;50.95;39.40;;;;;;;30.31;69.24;100935.66;5019065;28;70146;-37
2022/05/20 00:59:38;;;;;;;56.60;39.63;;;;;;;30.34;68.39;100935.25;5019083;28;65492;-38
2022/05/20 01:02:14;;;;;;;56.40;39.92;;;;;;;30.43;68.33;100939.38;5018211;28;70258;-36
2022/05/20 01:05:00;;;;;;;52.80;39.28;;;;;;;30.45;68.72;100948.09;5015988;28;66148;-37
2022/05/20 01:07:36;;;;;;;51.17;39.33;;;;;;;29.70;67.79;100807.09;5019708;28;69922;-37
2022/05/20 01:10:08;;;;;;;52.67;38.83;;;;;;;30.52;67.56;100938.06;5017996;28;66707;-38
2022/05/20 01:12:39;;;;;;;53.92;39.85;;;;;;;30.55;67.40;100943.06;5017220;28;70152;-37
2022/05/20 01:15:11;;;;;;;53.35;38.42;;;;;;;30.59;67.88;100944.28;5020145;28;66278;-38
2022/05/20 01:17:42;;;;;;;46.85;40.15;;;;;;;30.61;67.40;100953.00;5016635;28;69200;-37
2022/05/20 01:20:19;;;;;;;49.15;38.95;;;;;;;30.64;67.63;100940.91;5018829;28;65695;-38
2022/05/20 01:22:54;;;;;;;46.40;37.47;;;;;;;30.70;67.35;100938.19;5011861;28;68991;-39
2022/05/20 01:25:28;;;;;;;47.03;36.97;;;;;;;30.28;66.94;100869.28;5018424;28;66524;-37
2022/05/20 01:27:59;;;;;;;50.35;38.40;;;;;;;30.69;66.98;100933.81;5018301;28;69465;-38
2022/05/20 01:30:31;;;;;;;47.58;36.80;;;;;;;30.72;66.66;100933.34;5016890;28;66048;-37
2022/05/20 01:33:07;;;;;;;46.40;35.80;;;;;;;30.82;66.90;100932.09;5017666;28;70075;-39
2022/05/20 01:35:42;;;;;;;39.45;33.63;;;;;;;30.40;66.27;100859.44;5018868;28;65765;-38
2022/05/20 01:38:14;;;;;;;40.70;33.53;;;;;;;30.86;66.44;100928.72;5019189;28;70279;-38
2022/05/20 01:40:47;;;;;;;42.17;34.80;;;;;;;30.88;65.96;100937.47;5014266;28;66275;-37
2022/05/20 01:43:38;;;;;;;38.63;33.28;;;;;;;30.86;66.16;100933.31;5010508;28;71212;-37
2022/05/20 01:46:14;;;;;;;43.17;34.17;;;;;;;30.11;66.56;100795.88;5019539;28;66255;-37
2022/05/20 01:49:08;;;;;;;42.65;33.22;;;;;;;30.76;66.04;100909.41;5018079;28;70247;-39
2022/05/20 01:52:03;;;;;;;42.50;34.88;;;;;;;30.87;66.43;100919.56;5019366;28;66727;-36
2022/05/20 01:55:18;;;;;;;42.47;33.03;;;;;;;30.90;65.95;100926.41;5010210;28;69969;-38
2022/05/20 01:58:27;;;;;;;41.15;32.55;;;;;;;30.88;65.17;100931.22;5013769;28;66368;-37
2022/05/20 02:01:03;;;;;;;40.70;31.30;;;;;;;30.80;64.96;100880.03;5014884;28;69488;-37
2022/05/20 02:03:46;;;;;;;36.17;29.95;;;;;;;30.63;64.42;100869.69;5016889;28;65339;-37
2022/05/20 02:06:21;;;;;;;38.30;30.90;;;;;;;31.00;64.08;100907.78;5019230;28;69625;-36
2022/05/20 02:09:19;;;;;;;40.17;31.00;;;;;;;31.07;64.31;100922.13;5008489;28;65247;-36
2022/05/20 02:11:55;;;;;;;35.28;30.15;;;;;;;30.54;64.13;100826.88;5022516;28;70318;-36
2022/05/20 02:15:04;;;;;;;40.55;28.90;;;;;;;30.99;64.33;100922.38;5019040;28;65783;-36
2022/05/20 02:17:41;;;;;;;36.58;29.95;;;;;;;31.19;63.79;100929.53;5008920;28;69356;-37
2022/05/20 02:20:20;;;;;;;34.00;28.95;;;;;;;31.22;63.97;100927.19;5018934;28;65369;-37
2022/05/20 02:22:58;;;;;;;34.40;28.33;;;;;;;31.25;63.81;100915.09;5015391;28;69878;-38
2022/05/20 02:25:38;;;;;;;34.55;28.30;;;;;;;31.24;63.31;100927.00;5017754;28;66070;-36
2022/05/20 02:28:19;;;;;;;31.92;27.02;;;;;;;31.26;63.67;100901.31;5016656;28;70093;-38
2022/05/20 02:30:52;;;;;;;31.23;27.23;;;;;;;31.22;63.83;100894.69;5018696;28;66178;-39
2022/05/20 02:33:26;;;;;;;32.58;27.67;;;;;;;31.32;63.50;100902.31;5017838;28;70124;-37
2022/05/20 02:36:23;;;;;;;31.05;27.55;;;;;;;30.81;63.02;100832.94;5003284;28;65131;-38
2022/05/20 02:38:54;;;;;;;31.70;26.85;;;;;;;31.37;63.23;100900.63;5018054;28;70149;-37
2022/05/20 02:41:25;;;;;;;28.30;25.20;;;;;;;31.40;63.53;100891.22;5019651;28;65627;-36
2022/05/20 02:43:56;;;;;;;28.07;24.93;;;;;;;31.41;63.31;100890.16;5017971;28;69348;-36
2022/05/20 02:46:28;;;;;;;35.73;25.97;;;;;;;31.43;63.42;100885.34;5016352;28;66057;-38
2022/05/20 02:48:59;;;;;;;31.53;25.57;;;;;;;31.46;62.87;100884.91;5017000;28;69082;-37
2022/05/20 02:51:30;;;;;;;31.40;26.10;;;;;;;31.47;63.03;100881.13;5008069;28;65874;-38
2022/05/20 02:54:02;;;;;;;27.93;24.57;;;;;;;31.50;62.86;100875.25;5024580;28;69726;-38
2022/05/20 02:56:33;;;;;;;28.65;25.52;;;;;;;31.51;62.87;100882.34;5017753;28;66157;-37
2022/05/20 03:04:43;;;;;;;28.90;24.25;;;;;;;31.58;62.68;100868.69;5017460;28;70428;-38
2022/05/20 03:07:14;;;;;;;30.05;25.38;;;;;;;31.46;62.46;100844.22;5018280;28;67436;-37
2022/05/20 03:09:45;;;;;;;25.73;23.00;;;;;;;31.57;62.53;100854.31;5015895;28;70162;-36
2022/05/20 03:12:17;;;;;;;27.13;23.87;;;;;;;31.61;62.62;100852.81;5017484;28;66442;-37
2022/05/20 03:14:49;;;;;;;26.83;23.65;;;;;;;31.65;62.13;100849.63;5017107;28;70113;-37
2022/05/20 03:17:20;;;;;;;30.08;23.05;;;;;;;31.66;62.62;100845.88;5016608;28;66316;-36
2022/05/20 03:19:51;;;;;;;29.73;22.42;;;;;;;31.66;61.95;100845.88;5018633;28;70052;-37
2022/05/20 03:22:22;;;;;;;26.93;23.03;;;;;;;31.68;62.11;100832.91;5019121;28;65552;-39
2022/05/20 03:24:53;;;;;;;24.90;22.30;;;;;;;31.69;62.36;100829.97;5015591;28;69558;-36
2022/05/20 03:27:24;;;;;;;26.90;22.13;;;;;;;31.71;62.16;100830.59;5017417;28;66393;-37
2022/05/20 03:29:56;;;;;;;24.13;21.40;;;;;;;31.72;62.12;100826.81;5019670;28;69635;-38
2022/05/20 03:32:27;;;;;;;30.67;22.38;;;;;;;31.75;62.01;100822.81;5017230;28;67469;-37
2022/05/20 03:34:58;;;;;;;24.73;20.30;;;;;;;31.75;61.95;100809.25;5018292;28;70065;-36
2022/05/20 03:37:30;;;;;;;22.23;19.77;;;;;;;31.81;62.03;100821.91;5012368;28;66118;-37
2022/05/20 03:40:01;;;;;;;25.00;20.30;;;;;;;31.82;61.97;100810.03;5008773;28;70435;-37
2022/05/20 03:42:33;;;;;;;20.60;18.70;;;;;;;31.81;61.92;100805.63;5011561;28;65400;-37
2022/05/20 03:45:05;;;;;;;23.75;20.33;;;;;;;31.87;61.70;100799.28;5016849;28;69888;-37
2022/05/20 03:47:36;;;;;;;22.30;19.92;;;;;;;31.77;61.49;100785.47;5016811;28;65608;-37
2022/05/20 03:50:07;;;;;;;21.60;19.27;;;;;;;31.90;61.40;100804.28;5018704;28;69829;-38
2022/05/20 03:52:40;;;;;;;24.42;19.20;;;;;;;31.93;61.50;100793.00;5016095;28;65961;-38
2022/05/20 03:55:11;;;;;;;20.23;18.15;;;;;;;31.95;61.21;100790.88;5017319;28;69605;-41
2022/05/20 03:57:42;;;;;;;20.92;18.90;;;;;;;31.98;61.66;100790.44;5016470;28;65155;-38
2022/05/20 04:00:14;;;;;;;23.80;17.40;;;;;;;31.98;61.42;100786.88;5017101;28;68973;-36
2022/05/20 04:02:45;;;;;;;19.80;16.85;;;;;;;32.01;61.24;100786.41;5017092;28;65207;-37
2022/05/20 04:05:16;;;;;;;19.25;17.25;;;;;;;31.96;61.36;100781.69;5016285;28;69750;-36
2022/05/20 04:07:48;;;;;;;19.35;17.52;;;;;;;32.02;61.02;100780.75;5017284;28;66053;-37
2022/05/20 04:10:19;;;;;;;19.07;16.77;;;;;;;32.04;60.86;100778.66;5021022;28;70139;-37
2022/05/20 04:12:50;;;;;;;18.95;16.90;;;;;;;32.07;61.20;100780.06;5012351;28;66865;-37
2022/05/20 04:15:21;;;;;;;19.17;16.63;;;;;;;32.09;61.07;100775.22;5016889;28;69423;-38
2022/05/20 04:17:52;;;;;;;19.98;15.90;;;;;;;32.05;61.26;100755.88;5020360;28;67172;-36
2022/05/20 04:20:23;;;;;;;16.77;15.23;;;;;;;32.14;61.31;100766.41;5020455;28;70129;-37
2022/05/20 04:22:54;;;;;;;16.85;15.02;;;;;;;32.16;61.17;100759.69;5003630;28;66734;-38
2022/05/20 04:25:25;;;;;;;21.40;15.87;;;;;;;32.16;61.04;100753.44;5022214;28;69274;-34
2022/05/20 04:27:56;;;;;;;15.63;14.37;;;;;;;32.19;60.94;100753.78;5019321;28;66057;-38
2022/05/20 04:30:28;;;;;;;16.65;15.00;;;;;;;32.21;60.85;100745.44;5021112;28;69616;-35
2022/05/20 04:32:59;;;;;;;16.27;14.67;;;;;;;32.20;60.80;100727.47;5020851;28;65200;-37
2022/05/20 04:35:30;;;;;;;16.20;14.57;;;;;;;32.28;60.85;100729.84;5013069;28;70134;-39
2022/05/20 04:38:01;;;;;;;16.23;13.47;;;;;;;32.30;60.74;100738.59;5021599;28;65150;-38
2022/05/20 04:40:32;;;;;;;15.20;13.70;;;;;;;32.33;60.43;100734.59;5019718;28;70633;-38
2022/05/20 04:48:43;;;;;;;13.52;12.43;;;;;;;32.40;60.26;100710.84;5021131;28;66282;-38
2022/05/20 04:51:14;;;;;;;13.10;11.88;;;;;;;32.41;60.10;100707.09;5020287;28;71121;-37
2022/05/20 04:56:37;;;;;;;13.00;11.68;;;;;;;32.44;60.17;100710.16;5020584;28;70118;-37
2022/05/20 04:59:08;;;;;;;12.38;11.48;;;;;;;32.43;59.98;100705.81;5020530;28;67346;-37
2022/05/20 05:01:40;;;;;;;12.50;11.50;;;;;;;32.46;60.13;100701.81;5021466;28;70578;-37
2022/05/20 05:04:11;;;;;;;12.27;11.38;;;;;;;32.48;60.19;100702.38;5021011;28;66192;-37
2022/05/20 05:06:43;;;;;;;11.73;10.82;;;;;;;32.51;60.18;100706.53;5017821;28;70618;-37
2022/05/20 05:09:14;;;;;;;12.27;10.90;;;;;;;32.52;60.04;100698.16;5021507;28;66258;-36
2022/05/20 05:11:45;;;;;;;10.52;9.82;;;;;;;32.55;59.95;100691.44;5017623;28;68769;-36
2022/05/20 05:14:17;;;;;;;10.90;10.00;;;;;;;32.56;60.25;100676.78;5021499;28;65137;-37
2022/05/20 05:16:48;;;;;;;10.50;9.68;;;;;;;32.56;60.02;100671.34;5020768;28;70254;-38
2022/05/20 05:19:19;;;;;;;11.10;10.10;;;;;;;32.57;60.10;100667.56;5018531;28;66724;-39
2022/05/20 05:21:50;;;;;;;10.00;9.32;;;;;;;32.60;60.06;100661.69;5020333;28;68927;-37
2022/05/20 05:24:21;;;;;;;10.53;9.83;;;;;;;32.48;60.38;100643.50;5021371;28;66682;-36
2022/05/20 05:26:52;;;;;;;10.17;9.37;;;;;;;32.64;59.97;100662.84;5018364;28;69142;-36
2022/05/20 05:29:23;;;;;;;9.27;8.73;;;;;;;32.67;59.94;100657.75;5021227;28;66409;-36
2022/05/20 05:31:54;;;;;;;9.60;8.98;;;;;;;32.69;59.75;100654.81;5019586;28;69930;-37
2022/05/20 05:34:25;;;;;;;9.43;8.67;;;;;;;32.69;59.75;100654.81;5020397;28;66350;-37
2022/05/20 05:36:56;;;;;;;9.27;8.63;;;;;;;32.71;59.58;100641.84;5018958;28;69483;-35
2022/05/20 05:39:28;;;;;;;;;;;;;;;32.43;60.29;100642.50;5018961;28;65871;-35
2022/05/20 05:42:01;;;;;;;14.02;8.77;;;;;;;32.26;59.64;100560.97;5019480;28;71233;-35
2022/05/20 05:44:36;;;;;;;8.70;8.00;;;;;;;32.78;59.75;100628.09;5018715;28;66274;-37
2022/05/20 05:47:07;;;;;;;8.63;8.03;;;;;;;32.78;59.57;100623.50;5017500;28;69999;-35
2022/05/20 05:49:38;;;;;;;7.95;7.43;;;;;;;32.82;59.84;100611.09;5019844;28;65426;-38
2022/05/20 05:52:10;;;;;;;7.47;6.97;;;;;;;32.85;59.50;100609.81;5018579;28;69529;-37
2022/05/20 05:54:41;;;;;;;8.00;7.50;;;;;;;32.83;59.55;100601.06;5017761;28;66149;-36
2022/05/20 05:57:12;;;;;;;7.43;6.93;;;;;;;32.88;59.62;100601.97;5020780;28;69579;-37
2022/05/20 05:59:43;;;;;;;7.90;7.25;;;;;;;32.90;59.58;100601.72;5019048;28;65234;-36
2022/05/20 06:02:14;;;;;;;7.03;6.57;;;;;;;32.97;59.42;100596.19;5019387;28;69666;-37
2022/05/20 06:04:46;;;;;;;7.10;6.65;;;;;;;32.97;59.36;100593.47;5020513;28;65953;-39
2022/05/20 06:07:17;;;;;;;6.83;6.33;;;;;;;32.97;59.60;100579.88;5020428;28;69825;-37
2022/05/20 06:09:48;;;;;;;6.68;6.25;;;;;;;33.04;59.77;100586.84;5017975;28;66128;-36
2022/05/20 06:12:19;;;;;;;7.22;6.55;;;;;;;33.06;59.28;100578.44;5000178;28;70049;-36
2022/05/20 06:14:51;;;;;;;6.00;5.60;;;;;;;33.09;59.37;100573.34;5000033;28;65931;-37
2022/05/20 06:17:22;;;;;;;6.23;5.73;;;;;;;33.11;59.15;100562.25;5000825;28;70935;-36
2022/05/20 06:19:53;;;;;;;6.03;5.63;;;;;;;33.00;59.16;100535.94;5000390;28;66131;-35
2022/05/20 06:22:24;;;;;;;6.20;5.40;;;;;;;33.15;59.35;100549.78;4998417;28;70257;-36
2022/05/20 06:24:56;;;;;;;5.87;5.27;;;;;;;33.13;59.06;100543.81;4999493;28;65863;-38
2022/05/20 06:27:27;;;;;;;6.40;5.90;;;;;;;33.15;58.94;100534.34;5000165;28;70881;-37
2022/05/20 06:29:58;;;;;;;;;;;;;;;32.98;59.44;100540.75;4997839;28;65082;-35
2022/05/20 06:32:30;;;;;;;5.47;5.07;;;;;;;33.27;58.80;100534.28;4999183;28;70531;-36
2022/05/20 06:40:44;;;;;;;5.00;4.70;;;;;;;33.40;58.60;100522.25;5018616;28;66425;-37
2022/05/20 06:43:19;;;;;;;5.28;4.80;;;;;;;32.89;58.51;100421.59;5018684;28;70023;-41
2022/05/20 06:45:55;;;;;;;6.70;5.65;;;;;;;33.10;58.53;100439.13;5018742;28;66138;-38
2022/05/20 06:48:49;;;;;;;4.45;4.15;;;;;;;33.52;58.70;100500.44;5018220;28;69987;-36
2022/05/20 06:51:23;;;;;;;5.88;4.50;;;;;;;33.55;58.25;100502.69;5017038;28;66112;-36
2022/05/20 06:53:56;;;;;;;5.38;4.88;;;;;;;33.58;58.28;100494.84;5000690;28;69949;-36
2022/05/20 06:56:29;;;;;;;4.93;4.50;;;;;;;33.61;58.58;100488.09;5019546;28;66316;-36
2022/05/20 06:59:02;;;;;;;5.47;4.97;;;;;;;33.63;58.00;100477.78;5017971;28;70295;-36
2022/05/20 07:01:34;;;;;;;5.20;4.75;;;;;;;33.65;58.21;100475.63;5020251;28;65522;-37
2022/05/20 07:04:06;;;;;;;5.00;4.50;;;;;;;33.68;58.14;100466.97;5017786;28;69966;-37
2022/05/20 07:06:38;;;;;;;4.05;3.75;;;;;;;33.69;58.10;100470.53;5020334;28;66559;-36
2022/05/20 07:09:10;;;;;;;4.45;4.05;;;;;;;33.71;58.23;100468.38;5020304;28;69417;-36
2022/05/20 07:11:42;;;;;;;6.10;4.22;;;;;;;33.73;57.96;100467.03;5017475;28;65833;-36
2022/05/20 07:14:13;;;;;;;4.22;3.78;;;;;;;33.73;57.87;100468.94;5019998;28;69584;-37
2022/05/20 07:16:44;;;;;;;4.63;3.70;;;;;;;33.77;57.79;100460.03;5019416;28;66648;-37
2022/05/20 07:19:16;;;;;;;4.07;3.75;;;;;;;33.77;57.84;100454.59;5016359;28;70196;-37
2022/05/20 07:21:47;;;;;;;4.53;3.47;;;;;;;33.83;57.73;100458.22;5019499;28;65974;-37
2022/05/20 07:24:18;;;;;;;4.13;3.88;;;;;;;33.84;57.92;100451.69;5018822;28;69256;-37
2022/05/20 07:26:49;;;;;;;4.28;3.83;;;;;;;33.86;57.74;100457.72;5018762;28;66484;-37
2022/05/20 07:29:20;;;;;;;3.80;3.43;;;;;;;33.87;57.52;100453.09;5018193;28;70179;-35
2022/05/20 07:31:51;;;;;;;3.92;3.58;;;;;;;33.90;57.67;100447.16;5017095;28;66059;-37
2022/05/20 07:34:21;;;;;;;3.85;3.53;;;;;;;33.59;57.49;100398.56;5018957;28;70321;-36
2022/05/20 07:36:52;;;;;;;5.10;4.00;;;;;;;33.89;57.57;100440.06;5017936;28;66192;-36
2022/05/20 07:39:23;;;;;;;6.38;3.67;;;;;;;33.93;57.65;100443.91;5017023;28;69560;-36
2022/05/20 07:41:55;;;;;;;4.03;3.67;;;;;;;33.93;57.32;100443.91;5018410;28;66185;-37
2022/05/20 07:44:27;;;;;;;3.42;3.15;;;;;;;33.97;57.09;100445.06;5022649;28;69096;-37
2022/05/20 07:46:58;;;;;;;3.38;3.17;;;;;;;33.92;57.37;100445.00;5019791;28;66093;-37
2022/05/20 07:49:29;;;;;;;3.63;3.30;;;;;;;33.95;57.24;100461.66;5021133;28;69577;-36
2022/05/20 07:52:03;;;;;;;3.97;3.67;;;;;;;33.91;57.29;100443.38;5021814;28;65678;-37
2022/05/20 07:54:40;;;;;;;4.93;4.63;;;;;;;33.56;57.10;100387.38;5021822;28;69727;-37
2022/05/20 07:57:14;;;;;;;7.13;5.47;;;;;;;33.61;57.40;100390.19;5020298;28;65343;-36
2022/05/20 07:59:54;;;;;;;7.55;6.18;;;;;;;33.28;57.41;100348.34;5003336;28;70420;-36
2022/05/20 08:02:29;;;;;;;7.82;7.07;;;;;;;34.02;57.19;100453.31;5022035;28;65981;-37
2022/05/20 08:05:01;;;;;;;9.02;8.23;;;;;;;34.03;57.22;100442.16;5021042;28;70162;-37
2022/05/20 08:07:33;;;;;;;;;;;;;;;33.74;58.01;100433.34;5022231;28;66269;-36
2022/05/20 08:10:25;;;;;;;8.85;7.93;;;;;;;33.93;57.31;100446.63;5021855;28;70041;-37
2022/05/20 08:12:59;;;;;;;9.23;8.43;;;;;;;34.05;57.30;100444.69;5018717;28;66761;-37
2022/05/20 08:15:31;;;;;;;9.40;8.77;;;;;;;34.06;57.19;100448.22;5021422;28;70551;-37
2022/05/20 08:18:02;;;;;;;9.80;9.10;;;;;;;33.96;56.95;100435.25;5019343;28;66686;-36
2022/05/20 08:20:33;;;;;;;10.77;9.87;;;;;;;34.05;57.27;100438.41;5020917;28;69684;-38
2022/05/20 08:23:04;;;;;;;10.50;9.60;;;;;;;34.04;57.43;100451.13;5019478;28;65361;-36
2022/05/20 08:25:36;;;;;;;11.30;10.30;;;;;;;34.05;56.94;100438.41;5020556;28;70453;-36
2022/05/20 08:28:08;;;;;;;14.10;10.60;;;;;;;34.00;56.92;100422.81;5021858;28;65768;-37
2022/05/20 08:30:39;;;;;;;11.48;10.55;;;;;;;34.02;57.19;100434.25;5021535;28;69841;-37
2022/05/20 08:33:10;;;;;;;11.65;10.82;;;;;;;34.02;57.25;100428.81;5020561;28;66924;-36
2022/05/20 08:35:41;;;;;;;12.77;11.70;;;;;;;34.02;57.14;100426.09;5005352;28;69436;-36
2022/05/20 08:38:11;;;;;;;13.20;12.18;;;;;;;33.93;57.07;100403.09;5000481;28;65793;-36
2022/05/20 08:40:49;;;;;;;14.25;12.82;;;;;;;34.00;56.97;100409.19;5000114;28;70121;-37
2022/05/20 08:43:31;;;;;;;14.70;13.52;;;;;;;33.95;56.96;100401.78;5001702;28;67039;-36
2022/05/20 08:46:07;;;;;;;14.43;13.15;;;;;;;34.01;56.94;100408.09;4998250;28;69488;-36
2022/05/20 08:48:42;;;;;;;17.77;13.93;;;;;;;33.97;57.03;100404.25;5001178;28;66593;-36
2022/05/20 08:51:13;;;;;;;15.35;14.05;;;;;;;34.01;57.21;100421.72;4999846;28;69454;-36
2022/05/20 08:53:50;;;;;;;15.10;13.98;;;;;;;34.00;57.05;100417.34;4999345;28;65441;-36
2022/05/20 08:56:25;;;;;;;14.20;12.98;;;;;;;33.91;57.17;100400.66;5000382;28;69770;-42
2022/05/20 08:59:06;;;;;;;16.30;14.75;;;;;;;33.98;56.63;100406.72;5005994;28;66585;-36
2022/05/20 09:01:41;;;;;;;17.17;14.43;;;;;;;33.85;56.94;100385.34;5021299;28;68930;-37
2022/05/20 09:04:15;;;;;;;15.55;14.23;;;;;;;33.49;56.95;100324.16;5021767;28;66536;-36
2022/05/20 09:07:07;;;;;;;16.35;14.75;;;;;;;33.86;57.24;100406.03;5021369;28;69896;-35
2022/05/20 09:09:54;;;;;;;17.23;14.30;;;;;;;33.91;56.92;100408.81;5019740;28;66528;-36
2022/05/20 09:12:32;;;;;;;16.13;14.55;;;;;;;33.95;57.44;100400.97;5035191;28;69999;-34
2022/05/20 09:18:11;;;;;;;16.13;14.63;;;;;;;33.94;57.20;100415.66;5018948;28;70069;-36
2022/05/20 09:20:48;;;;;;;16.55;15.07;;;;;;;33.95;57.30;100422.72;5020654;28;65515;-37
2022/05/20 09:23:21;;;;;;;17.60;15.00;;;;;;;33.52;56.92;100348.16;5018757;28;69369;-36
2022/05/20 09:25:55;;;;;;;16.15;14.60;;;;;;;33.95;57.39;100417.28;5021206;28;65470;-37
2022/05/20 09:28:50;;;;;;;16.27;14.77;;;;;;;33.61;57.71;100395.63;5019693;28;69767;-36
2022/05/20 09:31:21;;;;;;;16.60;14.93;;;;;;;33.92;57.40;100420.50;5020279;28;65973;-37
2022/05/20 09:34:14;;;;;;;15.95;14.50;;;;;;;33.81;57.52;100416.84;5018131;28;70298;-35
2022/05/20 09:36:57;;;;;;;16.77;15.02;;;;;;;33.90;57.69;100419.94;5020170;28;65206;-37
2022/05/20 09:39:33;;;;;;;16.90;15.18;;;;;;;33.50;57.21;100353.81;5019834;28;69177;-36
2022/05/20 09:42:27;;;;;;;16.17;14.73;;;;;;;33.46;57.78;100365.44;5020445;28;65966;-38
2022/05/20 09:45:03;;;;;;;14.93;13.80;;;;;;;33.79;57.80;100408.94;5020378;28;69635;-42
2022/05/20 09:47:39;;;;;;;15.55;13.98;;;;;;;33.90;58.00;100422.66;5019322;28;66190;-37
2022/05/20 09:50:38;;;;;;;17.77;14.70;;;;;;;33.77;58.10;100413.81;5017864;28;69823;-37
2022/05/20 09:53:33;;;;;;;15.35;13.80;;;;;;;33.40;58.26;100344.69;5017722;28;66457;-37
2022/05/20 09:56:21;;;;;;;14.20;12.93;;;;;;;33.42;58.45;100343.38;5018975;28;68805;-37
2022/05/20 09:59:40;;;;;;;14.68;13.40;;;;;;;33.76;58.35;100414.03;5019516;28;65617;-38
2022/05/20 10:02:30;;;;;;;13.18;12.15;;;;;;;33.43;58.05;100355.88;5014347;28;69939;-37
2022/05/20 10:05:33;;;;;;;16.08;12.40;;;;;;;33.73;58.39;100426.25;5016176;28;65664;-37
2022/05/20 10:08:09;;;;;;;13.48;12.30;;;;;;;33.88;58.07;100430.25;5005741;28;70453;-37
2022/05/20 10:10:43;;;;;;;12.63;11.55;;;;;;;33.92;58.17;100423.22;5019656;28;66607;-37
2022/05/20 10:13:43;;;;;;;12.77;11.68;;;;;;;33.83;58.16;100419.31;5019042;28;70196;-38
2022/05/20 10:16:44;;;;;;;13.02;11.60;;;;;;;33.75;58.55;100432.25;5017090;28;66153;-38
2022/05/20 10:19:36;;;;;;;12.75;11.65;;;;;;;33.87;58.41;100431.31;5019793;28;69881;-36
2022/05/20 10:22:21;;;;;;;13.32;12.07;;;;;;;33.83;58.36;100436.44;5019054;28;66555;-37
2022/05/20 10:24:59;;;;;;;11.30;10.27;;;;;;;33.50;58.34;100383.75;5019974;28;70555;-35
2022/05/20 10:27:57;;;;;;;12.18;11.23;;;;;;;33.76;58.62;100446.69;5016897;28;66049;-37
2022/05/20 10:33:29;;;;;;;10.63;9.70;;;;;;;33.59;59.78;100403.19;5019006;28;66264;-39
2022/05/20 10:36:18;;;;;;;11.40;10.30;;;;;;;33.94;60.48;100448.31;5015927;28;70227;-39
2022/05/20 10:39:13;;;;;;;11.68;10.50;;;;;;;33.95;61.66;100447.22;5014393;28;66176;-40
2022/05/20 10:42:40;;;;;;;10.23;9.32;;;;;;;33.91;62.97;100449.63;5009758;28;70114;-39
2022/05/20 10:48:35;;;;;;;;;;;;;;;33.41;65.34;100452.41;5013966;28;69337;-40
2022/05/20 10:51:27;;;;;;;12.85;8.63;;;;;;;33.52;64.35;100456.91;5017584;28;65825;-41
2022/05/20 10:54:23;;;;;;;9.20;8.32;;;;;;;33.45;64.54;100456.25;5017612;28;70547;-41
2022/05/20 10:57:30;;;;;;;9.95;8.02;;;;;;;33.45;64.84;100461.69;5019348;28;66374;-42
2022/05/20 11:00:10;;;;;;;9.65;7.90;;;;;;;32.64;65.12;100334.25;5018776;28;70080;-42
2022/05/20 11:03:08;;;;;;;12.77;7.60;;;;;;;33.30;66.07;100476.69;5018966;28;65393;-41
2022/05/20 11:05:47;;;;;;;13.77;8.13;;;;;;;33.38;66.15;100489.06;5017055;28;70051;-41
2022/05/20 11:08:34;;;;;;;9.68;8.48;;;;;;;33.31;66.48;100505.50;5018677;28;66102;-42
2022/05/20 11:11:28;;;;;;;15.70;9.80;;;;;;;33.26;67.44;100502.69;5018693;28;69356;-40
2022/05/20 11:14:17;;;;;;;18.88;11.88;;;;;;;33.23;67.52;100507.81;4997103;28;66540;-40
2022/05/20 11:17:12;;;;;;;18.20;12.25;;;;;;;33.17;67.68;100525.94;5014893;28;69043;-40
2022/05/20 11:20:08;;;;;;;21.70;12.55;;;;;;;33.15;67.96;100544.38;5019667;28;65990;-43
2022/05/20 11:22:51;;;;;;;17.05;12.45;;;;;;;33.16;67.64;100551.47;5021826;28;70126;-42
2022/05/20 11:25:33;;;;;;;15.93;13.02;;;;;;;33.09;67.50;100551.59;5021204;28;66463;-44
2022/05/20 11:28:12;;;;;;;15.07;12.48;;;;;;;32.76;67.26;100502.56;5019167;28;70152;-42
2022/05/20 11:30:49;;;;;;;23.25;13.73;;;;;;;33.09;67.50;100550.78;5018701;28;66668;-43
2022/05/20 11:33:57;;;;;;;28.35;12.85;;;;;;;33.22;67.85;100544.22;5020995;28;70038;-40
2022/05/20 11:36:56;;;;;;;26.33;11.50;;;;;;;33.25;67.73;100550.00;5033732;28;65445;-39
2022/05/20 11:40:18;;;;;;;13.48;11.18;;;;;;;33.32;67.33;100555.25;5020540;28;69524;-40
2022/05/20 11:43:29;;;;;;;21.15;11.55;;;;;;;33.47;66.39;100565.59;5000791;28;66524;-40
2022/05/20 11:46:27;;;;;;;13.13;10.90;;;;;;;33.43;66.19;100572.59;4978678;28;70067;-43
2022/05/20 11:49:27;;;;;;;12.48;11.15;;;;;;;33.02;65.92;100495.78;4978784;28;66543;-40
2022/05/20 11:52:22;;;;;;;12.48;10.55;;;;;;;33.10;65.76;100515.22;5018347;28;70157;-40
2022/05/20 11:54:57;;;;;;;13.73;11.05;;;;;;;33.64;65.32;100569.19;5020731;28;66267;-39
2022/05/20 11:57:40;;;;;;;13.73;10.05;;;;;;;33.19;64.78;100496.63;5021758;28;69614;-40
2022/05/20 12:00:17;;;;;;;21.67;11.05;;;;;;;33.59;64.71;100561.75;5020648;28;65849;-41
2022/05/20 12:03:07;;;;;;;13.25;10.80;;;;;;;33.31;64.70;100540.84;5021727;28;70344;-40
2022/05/20 12:05:43;;;;;;;25.65;10.73;;;;;;;33.70;64.66;100600.00;5021203;28;66360;-39
2022/05/20 12:08:39;;;;;;;11.10;9.98;;;;;;;33.61;64.57;100599.59;5021226;28;70439;-40
2022/05/20 12:11:35;;;;;;;12.95;10.20;;;;;;;33.61;64.86;100602.31;5020157;28;66225;-40
2022/05/20 12:14:13;;;;;;;11.40;10.30;;;;;;;33.68;64.35;100602.97;5002549;28;70801;-39
2022/05/20 12:17:03;;;;;;;10.13;8.90;;;;;;;33.62;64.51;100617.56;5021689;28;66434;-39
2022/05/20 12:25:57;;;;;;;12.60;9.95;;;;;;;33.67;64.47;100642.13;5020776;28;70219;-40
2022/05/20 12:28:32;;;;;;;18.75;10.07;;;;;;;33.67;64.34;100639.41;5019407;28;66636;-40
2022/05/20 12:31:26;;;;;;;15.05;9.68;;;;;;;33.66;64.26;100648.66;5020588;28;69508;-40
2022/05/20 12:34:10;;;;;;;10.98;10.02;;;;;;;33.65;64.10;100646.16;5014767;28;65408;-39
2022/05/20 12:36:42;;;;;;;11.32;9.02;;;;;;;33.64;64.13;100645.34;5021130;28;69011;-40